New Marlborough, Massachusetts
Current Conditions -  °F | °C
As of 9:54 PM on Monday 22 Dec 2014 (Local Time) from KPSF Reporting Station
Overcast Overcast  
Wind Chill: 27°   Ceiling: 800
Heat Index: 35°   Visibility: 10mi
Dew Point: 32°   Wind: 10mph
Humidity: 89%   Direction: 110°ESE
Pressure: 30.21"   Gusts: NA
Location:  42.1779°N, 73.3332°W
Report Text: KPSF 230254Z AUTO 11009KT 10SM OVC008 02/00 A3021 RMK AO2 SLP238 T00170000 56006
Loading
Personal Weather Stations






























Interactive Weather Map New forecast layout! Learn more

10-Day Weather Forecast

Advertisements
Track Severe Weather on mobile